createdAt,value
2017-02-15T00:00:05.710Z,30.1
2017-02-15T00:02:05.523Z,30.5
2017-02-15T00:04:10.721Z,30.2
2017-02-15T00:06:05.539Z,30.4
2017-02-15T00:08:05.290Z,30.4
2017-02-15T00:10:05.644Z,30.4
2017-02-15T00:12:05.651Z,30.4
2017-02-15T00:14:05.392Z,30.4
2017-02-15T00:16:05.442Z,30.6
2017-02-15T00:18:07.932Z,30.6
2017-02-15T00:20:05.917Z,30.6
2017-02-15T00:22:06.078Z,30.5
2017-02-15T00:24:05.360Z,30.6
2017-02-15T00:26:05.111Z,30.5
2017-02-15T00:28:06.239Z,30.5
2017-02-15T00:30:08.471Z,30.4
2017-02-15T00:32:05.742Z,30.4
2017-02-15T00:34:05.635Z,30.5
2017-02-15T00:36:05.402Z,30.5
2017-02-15T00:38:05.173Z,31
2017-02-15T00:40:08.270Z,30.6
2017-02-15T00:42:06.011Z,30.6
2017-02-15T00:44:05.975Z,30.6
2017-02-15T00:46:05.979Z,30.6
2017-02-15T00:48:08.352Z,30.5
2017-02-15T00:50:07.636Z,30.4
2017-02-15T00:52:08.212Z,30.4
2017-02-15T00:54:05.969Z,30.2
2017-02-15T00:56:05.684Z,30.4
2017-02-15T00:58:05.777Z,30.4
2017-02-15T01:00:08.405Z,30.1
2017-02-15T01:02:05.195Z,30.1
2017-02-15T01:04:05.780Z,30.1
2017-02-15T01:06:05.515Z,30.1
2017-02-15T01:08:05.758Z,30
2017-02-15T01:10:08.154Z,30
2017-02-15T01:12:05.993Z,30.1
2017-02-15T01:14:05.872Z,30
2017-02-15T01:16:05.516Z,30
2017-02-15T01:18:08.055Z,30
2017-02-15T01:20:05.863Z,30
2017-02-15T01:22:05.957Z,30
2017-02-15T01:24:08.311Z,30
2017-02-15T01:26:07.709Z,30
2017-02-15T01:28:05.668Z,30
2017-02-15T01:30:07.966Z,30
2017-02-15T01:32:05.590Z,30
2017-02-15T01:34:05.692Z,30
2017-02-15T01:36:08.044Z,30
2017-02-15T01:38:05.802Z,30
2017-02-15T01:40:08.431Z,30
2017-02-15T01:42:05.229Z,30
2017-02-15T01:44:05.986Z,30
2017-02-15T01:46:08.560Z,30
2017-02-15T01:48:07.934Z,30
2017-02-15T01:50:08.203Z,30
2017-02-15T01:52:06.056Z,30
2017-02-15T01:54:08.300Z,30
2017-02-15T01:56:05.029Z,30
2017-02-15T01:58:08.202Z,30
2017-02-15T02:00:06.012Z,30
2017-02-15T02:02:05.717Z,30
2017-02-15T02:04:08.292Z,30
2017-02-15T02:06:05.101Z,30
2017-02-15T02:08:05.849Z,30
2017-02-15T02:10:05.701Z,29.9
2017-02-15T02:12:16.112Z,30
2017-02-15T02:14:05.833Z,29.9
2017-02-15T02:16:05.700Z,29.9
2017-02-15T02:18:05.688Z,29.9
2017-02-15T02:20:05.727Z,29.9
2017-02-15T02:22:05.854Z,29.9
2017-02-15T02:24:05.601Z,29.9
2017-02-15T02:26:05.360Z,29.9
2017-02-15T02:28:05.471Z,29.9
2017-02-15T02:30:05.248Z,29.9
2017-02-15T02:32:05.549Z,29.9
2017-02-15T02:34:05.585Z,29.9
2017-02-15T02:36:05.702Z,29.9
2017-02-15T02:38:05.449Z,29.9
2017-02-15T02:40:05.358Z,29.9
2017-02-15T02:42:05.118Z,29.9
2017-02-15T02:44:08.340Z,29.8
2017-02-15T02:46:07.947Z,29.8
2017-02-15T02:48:05.688Z,29.9
2017-02-15T02:50:05.483Z,29.8
2017-02-15T02:52:06.087Z,29.8
2017-02-15T02:54:05.323Z,29.8
2017-02-15T02:56:05.065Z,29.8
2017-02-15T02:58:05.976Z,29.8
2017-02-15T03:00:05.679Z,29.8
2017-02-15T03:02:05.466Z,29.8
2017-02-15T03:04:05.625Z,29.8
2017-02-15T03:06:05.376Z,29.8
2017-02-15T03:08:05.345Z,29.8
2017-02-15T03:10:07.910Z,29.8
2017-02-15T03:12:07.756Z,29.9
2017-02-15T03:14:07.822Z,29.8
2017-02-15T03:16:06.076Z,29.8
2017-02-15T03:18:06.044Z,29.8
2017-02-15T03:20:05.846Z,29.8
2017-02-15T03:22:08.310Z,29.8
2017-02-15T03:24:05.366Z,29.8
2017-02-15T03:26:05.131Z,29.8
2017-02-15T03:28:06.152Z,29.8
2017-02-15T03:30:08.441Z,29.8
2017-02-15T03:32:05.250Z,29.8
2017-02-15T03:34:06.320Z,29.8
2017-02-15T03:36:05.083Z,29.8
2017-02-15T03:38:05.824Z,29.8
2017-02-15T03:40:05.900Z,29.8
2017-02-15T03:42:05.268Z,29.8
2017-02-15T03:44:05.614Z,29.8
2017-02-15T03:46:06.182Z,29.8
2017-02-15T03:48:05.919Z,29.8
2017-02-15T03:50:05.195Z,29.8
2017-02-15T03:52:06.207Z,29.8
2017-02-15T03:54:05.915Z,29.8
2017-02-15T03:56:05.941Z,29.8
2017-02-15T03:58:06.112Z,29.8
2017-02-15T04:00:05.928Z,29.8
2017-02-15T04:02:10.407Z,29.8
2017-02-15T04:04:10.362Z,29.8
2017-02-15T04:06:05.636Z,29.8
2017-02-15T04:08:05.408Z,29.8
2017-02-15T04:10:05.906Z,29.8
2017-02-15T04:12:05.815Z,29.8
2017-02-15T04:14:10.129Z,29.8
2017-02-15T04:16:06.210Z,29.8
2017-02-15T04:18:05.127Z,29.8
2017-02-15T04:20:05.853Z,29.8
2017-02-15T04:22:05.926Z,29.8
2017-02-15T04:24:05.651Z,29.8
2017-02-15T04:26:05.430Z,29.8
2017-02-15T04:28:05.592Z,29.8
2017-02-15T04:30:06.016Z,29.8
2017-02-15T04:32:08.335Z,29.8
2017-02-15T04:34:10.901Z,29.8
2017-02-15T04:36:05.620Z,29.8
2017-02-15T04:38:05.408Z,29.8
2017-02-15T04:40:05.952Z,29.8
2017-02-15T04:42:08.252Z,29.8
2017-02-15T04:44:06.403Z,29.8
2017-02-15T04:46:05.451Z,29.8
2017-02-15T04:48:05.191Z,29.8
2017-02-15T04:50:05.919Z,29.8
2017-02-15T04:52:05.772Z,29.8
2017-02-15T04:54:05.785Z,29.8
2017-02-15T04:56:05.080Z,29.8
2017-02-15T04:58:05.931Z,29.8
2017-02-15T05:00:08.533Z,29.8
2017-02-15T05:02:05.260Z,29.6
2017-02-15T05:04:05.404Z,29.8
2017-02-15T05:06:05.166Z,29.8
2017-02-15T05:08:05.920Z,29.8
2017-02-15T05:10:05.885Z,29.8
2017-02-15T05:12:05.201Z,29.8
2017-02-15T05:14:11.061Z,29.8
2017-02-15T05:16:08.976Z,29.8
2017-02-15T05:18:05.417Z,29.8
2017-02-15T05:20:06.022Z,29.7
2017-02-15T05:22:06.136Z,29.8
2017-02-15T05:24:05.870Z,29.8
2017-02-15T05:26:06.009Z,29.8
2017-02-15T05:28:06.058Z,29.8
2017-02-15T05:30:10.874Z,29.7
2017-02-15T05:32:05.303Z,29.7
2017-02-15T05:34:05.345Z,30
2017-02-15T05:36:05.054Z,29.6
2017-02-15T05:38:05.794Z,29.7
2017-02-15T05:40:10.759Z,29.9
2017-02-15T05:42:05.578Z,29.9
2017-02-15T05:44:10.988Z,30
2017-02-15T05:46:05.950Z,30
2017-02-15T05:48:06.087Z,30
2017-02-15T05:50:05.869Z,30.1
2017-02-15T05:52:05.558Z,30
2017-02-15T05:54:05.218Z,30.3
2017-02-15T05:56:05.904Z,30.2
2017-02-15T05:58:06.234Z,30.1
2017-02-15T06:00:05.190Z,30.1
2017-02-15T06:02:05.908Z,30.1
2017-02-15T06:04:08.437Z,30.2
2017-02-15T06:06:07.686Z,30.2
2017-02-15T06:08:05.967Z,30.2
2017-02-15T06:10:05.841Z,30.3
2017-02-15T06:12:05.936Z,30
2017-02-15T06:14:06.660Z,30
2017-02-15T06:16:12.706Z,30
2017-02-15T06:18:05.849Z,30
2017-02-15T06:20:08.236Z,30.1
2017-02-15T06:22:06.096Z,30.1
2017-02-15T06:24:05.580Z,30.3
2017-02-15T06:26:07.864Z,30.6
2017-02-15T06:28:05.868Z,30.8
2017-02-15T06:30:05.595Z,30.8
2017-02-15T06:32:07.919Z,30.7
2017-02-15T06:34:05.549Z,30.7
2017-02-15T06:36:05.622Z,30.7
2017-02-15T06:38:05.418Z,30.8
2017-02-15T06:40:05.405Z,30.7
2017-02-15T06:42:05.219Z,30.8
2017-02-15T06:44:05.958Z,30.8
2017-02-15T06:46:08.603Z,30.8
2017-02-15T06:48:05.407Z,30.6
2017-02-15T06:50:05.249Z,30.8
2017-02-15T06:52:07.941Z,30.6
2017-02-15T06:54:08.212Z,30.7
2017-02-15T06:56:08.476Z,30.6
2017-02-15T06:58:05.407Z,30.8
2017-02-15T07:00:05.152Z,30.8
2017-02-15T07:02:05.932Z,30.7
2017-02-15T07:04:05.805Z,30.9
2017-02-15T07:06:05.538Z,30.9
2017-02-15T07:08:05.670Z,31.1
2017-02-15T07:10:06.250Z,31
2017-02-15T07:12:05.967Z,31
2017-02-15T07:14:05.748Z,31.4
2017-02-15T07:16:10.745Z,31.1
2017-02-15T07:18:05.861Z,31.1
2017-02-15T07:20:05.636Z,31.1
2017-02-15T07:22:05.692Z,31.1
2017-02-15T07:24:05.812Z,31
2017-02-15T07:26:10.700Z,31.1
2017-02-15T07:28:05.693Z,31.1
2017-02-15T07:30:05.425Z,31
2017-02-15T07:32:07.705Z,31.2
2017-02-15T07:34:05.760Z,31.2
2017-02-15T07:36:06.001Z,31.1
2017-02-15T07:38:05.776Z,31.3
2017-02-15T07:40:10.138Z,31.3
2017-02-15T07:42:05.516Z,31.2
2017-02-15T07:44:05.253Z,31.1
2017-02-15T07:46:06.269Z,31.4
2017-02-15T07:48:07.024Z,31.2
2017-02-15T07:50:05.884Z,31.2
2017-02-15T07:52:05.910Z,31.1
2017-02-15T07:54:05.682Z,31.3
2017-02-15T07:56:05.574Z,31.3
2017-02-15T07:58:05.572Z,31.3
2017-02-15T08:00:13.350Z,31.2
2017-02-15T08:02:05.211Z,31.2
2017-02-15T08:04:07.376Z,31.3
2017-02-15T08:06:05.575Z,31.3
2017-02-15T08:08:06.411Z,31.2
2017-02-15T08:10:05.963Z,31.1
2017-02-15T08:12:05.964Z,31.3
2017-02-15T08:14:05.811Z,31.3
2017-02-15T08:16:08.310Z,31.4
2017-02-15T08:18:05.242Z,31.2
2017-02-15T08:20:05.978Z,31.4
2017-02-15T08:22:06.060Z,31.3
2017-02-15T08:24:16.213Z,31.3
2017-02-15T08:26:05.465Z,31.3
2017-02-15T08:28:10.626Z,31.3
2017-02-15T08:30:07.896Z,31.5
2017-02-15T08:32:16.060Z,31.5
2017-02-15T08:34:05.653Z,31.6
2017-02-15T08:36:05.887Z,31.7
2017-02-15T08:38:07.686Z,31.6
2017-02-15T08:40:05.755Z,31.6
2017-02-15T08:42:05.155Z,31.6
2017-02-15T08:44:11.126Z,31.7
2017-02-15T08:46:06.159Z,31.7
2017-02-15T08:48:05.867Z,31.6
2017-02-15T08:50:05.881Z,31.8
2017-02-15T08:52:12.972Z,31.8
2017-02-15T08:54:05.231Z,31.7
2017-02-15T08:56:06.003Z,31.6
2017-02-15T08:58:08.592Z,31.7
2017-02-15T09:00:05.748Z,31.7
2017-02-15T09:02:06.004Z,31.8
2017-02-15T09:04:06.085Z,31.8
2017-02-15T09:06:05.877Z,31.6
2017-02-15T09:08:05.632Z,31.7
2017-02-15T09:10:10.564Z,31.6
2017-02-15T09:12:05.552Z,31.7
2017-02-15T09:14:07.774Z,31.7
2017-02-15T09:16:08.485Z,31.6
2017-02-15T09:18:05.624Z,31.6
2017-02-15T09:20:05.359Z,31.7
2017-02-15T09:22:05.903Z,31.7
2017-02-15T09:24:05.256Z,31.8
2017-02-15T09:26:08.468Z,31.7
2017-02-15T09:28:05.355Z,31.7
2017-02-15T09:30:05.659Z,31.7
2017-02-15T09:32:05.727Z,31.8
2017-02-15T09:34:05.627Z,31.9
2017-02-15T09:36:05.466Z,31.9
2017-02-15T09:38:05.222Z,31.7
2017-02-15T09:40:11.430Z,31.7
2017-02-15T09:42:05.212Z,31.7
2017-02-15T09:44:07.915Z,31.8
2017-02-15T09:46:08.540Z,31.6
2017-02-15T09:48:07.944Z,31.7
2017-02-15T09:50:05.796Z,31.7
2017-02-15T09:52:05.733Z,31.8
2017-02-15T09:54:05.481Z,31.5
2017-02-15T09:56:06.002Z,31.6
2017-02-15T09:58:05.635Z,31.5
2017-02-15T10:00:08.974Z,31.2
2017-02-15T10:02:05.248Z,31.2
2017-02-15T10:04:06.144Z,31.3
2017-02-15T10:06:08.383Z,31.1
2017-02-15T10:08:05.276Z,31.1
2017-02-15T10:10:11.355Z,31.1
2017-02-15T10:12:07.678Z,31.3
2017-02-15T10:14:05.731Z,31
2017-02-15T10:16:08.629Z,31.2
2017-02-15T10:18:05.630Z,31.2
2017-02-15T10:20:13.148Z,31.2
2017-02-15T10:22:06.266Z,31.2
2017-02-15T10:24:07.625Z,31.1
2017-02-15T10:26:05.376Z,31.1
2017-02-15T10:28:05.241Z,31.2
2017-02-15T10:30:07.006Z,31.2
2017-02-15T10:32:06.074Z,31.1
2017-02-15T10:34:06.280Z,31.1
2017-02-15T10:36:05.184Z,31.2
2017-02-15T10:38:05.478Z,31.3
2017-02-15T10:40:05.413Z,31.1
2017-02-15T10:42:05.188Z,31.1
2017-02-15T10:44:05.928Z,31.1
2017-02-15T10:46:06.048Z,31.2
2017-02-15T10:48:13.361Z,31.1
2017-02-15T10:50:05.183Z,31
2017-02-15T10:52:06.294Z,31.1
2017-02-15T10:54:05.029Z,31.1
2017-02-15T10:56:06.848Z,31.1
2017-02-15T10:58:05.680Z,31.2
2017-02-15T11:00:05.435Z,30.9
2017-02-15T11:02:05.255Z,31
2017-02-15T11:04:06.252Z,31
2017-02-15T11:06:06.044Z,31.1
2017-02-15T11:08:06.028Z,31.1
2017-02-15T11:10:08.869Z,31.1
2017-02-15T11:12:06.700Z,30.9
2017-02-15T11:14:08.101Z,31
2017-02-15T11:16:06.140Z,31.2
2017-02-15T11:18:05.145Z,31.2
2017-02-15T11:20:05.907Z,31
2017-02-15T11:22:05.955Z,31
2017-02-15T11:24:08.683Z,31.1
2017-02-15T11:26:05.493Z,31.1
2017-02-15T11:28:05.606Z,31.1
2017-02-15T11:30:07.905Z,31.2
2017-02-15T11:32:05.710Z,31.2
2017-02-15T11:34:05.617Z,31.2
2017-02-15T11:36:05.364Z,31.2
2017-02-15T11:38:07.663Z,31
2017-02-15T11:40:05.538Z,31
2017-02-15T11:42:05.529Z,31
2017-02-15T11:44:05.272Z,31
2017-02-15T11:46:06.348Z,31.1
2017-02-15T11:48:05.080Z,31.1
2017-02-15T11:50:05.805Z,31.1
2017-02-15T11:52:05.733Z,31.3
2017-02-15T11:54:05.479Z,31.3
2017-02-15T11:56:06.113Z,31.6
2017-02-15T11:58:06.044Z,31.4
2017-02-15T12:00:05.791Z,31.6
2017-02-15T12:02:05.596Z,31.4
2017-02-15T12:04:10.374Z,31.4
2017-02-15T12:06:05.106Z,31.3
2017-02-15T12:08:08.898Z,31.4
2017-02-15T12:10:06.082Z,31.3
2017-02-15T12:12:08.545Z,31.4
2017-02-15T12:14:05.356Z,31.4
2017-02-15T12:16:05.251Z,31.5
2017-02-15T12:18:05.693Z,31.5
2017-02-15T12:20:05.499Z,31.6
2017-02-15T12:22:05.519Z,31.7
2017-02-15T12:24:05.394Z,32
2017-02-15T12:26:07.877Z,32.5
2017-02-15T12:28:08.543Z,32.4
2017-02-15T12:30:05.318Z,32.5
2017-02-15T12:32:05.604Z,32.5
2017-02-15T12:34:05.489Z,32.8
2017-02-15T12:36:05.283Z,33.2
2017-02-15T12:38:06.021Z,34.5
2017-02-15T12:40:06.008Z,34.2
2017-02-15T12:42:05.727Z,33.3
2017-02-15T12:44:05.647Z,32.6
2017-02-15T12:46:06.166Z,32.6
2017-02-15T12:48:08.373Z,32.5
2017-02-15T12:50:05.049Z,32.5
2017-02-15T12:52:05.441Z,32.4
2017-02-15T12:54:13.518Z,32.5
2017-02-15T12:56:05.224Z,32.6
2017-02-15T12:58:11.214Z,32.3
2017-02-15T13:00:05.591Z,32.3
2017-02-15T13:02:07.864Z,32.2
2017-02-15T13:04:06.170Z,32.1
2017-02-15T13:06:05.909Z,32.1
2017-02-15T13:08:05.667Z,32
2017-02-15T13:10:11.258Z,31.8
2017-02-15T13:12:06.210Z,31.8
2017-02-15T13:14:06.804Z,31.7
2017-02-15T13:16:05.835Z,31.8
2017-02-15T13:18:07.349Z,31.8
2017-02-15T13:20:05.119Z,31.7
2017-02-15T13:22:05.724Z,31.5
2017-02-15T13:24:05.766Z,31.7
2017-02-15T13:26:05.665Z,31.3
2017-02-15T13:28:05.654Z,31.5
2017-02-15T13:30:08.427Z,31.3
2017-02-15T13:32:05.484Z,31.1
2017-02-15T13:34:07.925Z,31.1
2017-02-15T13:36:05.654Z,31.1
2017-02-15T13:38:07.920Z,31.1
2017-02-15T13:40:05.865Z,31.1
2017-02-15T13:42:08.099Z,30.9
2017-02-15T13:44:05.845Z,30.9
2017-02-15T13:46:08.073Z,30.8
2017-02-15T13:48:08.631Z,31.1
2017-02-15T13:50:05.331Z,31.1
2017-02-15T13:52:05.427Z,31.1
2017-02-15T13:54:05.128Z,30.5
2017-02-15T13:56:05.857Z,30.8
2017-02-15T13:58:05.721Z,30.8
2017-02-15T14:00:08.010Z,31.1
2017-02-15T14:02:05.710Z,31.2
2017-02-15T14:04:07.268Z,31.4
2017-02-15T14:06:06.033Z,31.8
2017-02-15T14:08:08.334Z,32.2
2017-02-15T14:10:05.448Z,32.1
2017-02-15T14:12:05.282Z,32.2
2017-02-15T14:14:07.570Z,32.5
2017-02-15T14:16:05.537Z,32.5
2017-02-15T14:18:08.043Z,33.3
2017-02-15T14:20:05.606Z,33.3
2017-02-15T14:22:06.166Z,33.2
2017-02-15T14:24:05.897Z,33.3
2017-02-15T14:26:05.728Z,33.5
2017-02-15T14:28:05.734Z,33.5
2017-02-15T14:30:10.535Z,33.9
2017-02-15T14:32:05.288Z,34
2017-02-15T14:34:06.147Z,33.8
2017-02-15T14:36:06.250Z,34
2017-02-15T14:38:05.041Z,34
2017-02-15T14:40:06.055Z,34
2017-02-15T14:42:05.760Z,34
2017-02-15T14:44:05.620Z,34
2017-02-15T14:46:05.585Z,34.2
2017-02-15T14:48:05.391Z,34.2
2017-02-15T14:50:05.136Z,34.3
2017-02-15T14:52:11.220Z,34.5
2017-02-15T14:54:05.171Z,34.3
2017-02-15T14:56:08.436Z,34.6
2017-02-15T14:58:05.354Z,34.6
2017-02-15T15:00:05.666Z,34.7
2017-02-15T15:02:05.390Z,34.6
2017-02-15T15:04:05.456Z,34.6
2017-02-15T15:06:05.263Z,34.6
2017-02-15T15:08:06.375Z,34.7
2017-02-15T15:10:05.384Z,34.7
2017-02-15T15:12:05.204Z,34.5
2017-02-15T15:14:06.157Z,34.5
2017-02-15T15:16:05.840Z,34.6
2017-02-15T15:18:08.502Z,34.7
2017-02-15T15:20:05.767Z,34.7
2017-02-15T15:22:05.701Z,34.7
2017-02-15T15:24:05.657Z,34.7
2017-02-15T15:26:07.934Z,34.8
2017-02-15T15:28:08.061Z,34.8
2017-02-15T15:30:05.790Z,34.8
2017-02-15T15:32:05.588Z,34.6
2017-02-15T15:34:05.715Z,34.5
2017-02-15T15:36:08.089Z,34.9
2017-02-15T15:38:05.877Z,34.7
2017-02-15T15:40:08.523Z,35
2017-02-15T15:42:05.298Z,35
2017-02-15T15:44:05.038Z,35
2017-02-15T15:46:08.678Z,35
2017-02-15T15:48:05.649Z,34.9
2017-02-15T15:50:07.916Z,34.9
2017-02-15T15:52:05.808Z,34.7
2017-02-15T15:54:05.503Z,34.9
2017-02-15T15:56:05.481Z,34.9
2017-02-15T15:58:08.259Z,34.6
2017-02-15T16:00:05.503Z,34.6
2017-02-15T16:02:06.024Z,34.5
2017-02-15T16:04:06.329Z,34.6
2017-02-15T16:06:05.102Z,34.6
2017-02-15T16:08:05.916Z,34.5
2017-02-15T16:10:06.212Z,34.6
2017-02-15T16:12:11.457Z,34.6
2017-02-15T16:14:05.238Z,34.5
2017-02-15T16:16:06.318Z,34.5
2017-02-15T16:18:05.283Z,34.5
2017-02-15T16:20:05.208Z,34.5
2017-02-15T16:22:06.507Z,34.5
2017-02-15T16:24:05.259Z,34.5
2017-02-15T16:26:06.015Z,34.5
2017-02-15T16:28:06.164Z,34.5
2017-02-15T16:30:06.622Z,34.5
2017-02-15T16:32:08.102Z,34.5
2017-02-15T16:34:06.033Z,34.2
2017-02-15T16:36:05.804Z,34.4
2017-02-15T16:38:05.579Z,34.5
2017-02-15T16:40:05.460Z,34.3
2017-02-15T16:42:07.832Z,34.5
2017-02-15T16:44:05.912Z,34.5
2017-02-15T16:46:06.016Z,34.5
2017-02-15T16:48:05.889Z,34.3
2017-02-15T16:50:05.385Z,34.5
2017-02-15T16:52:05.397Z,34.6
2017-02-15T16:54:05.361Z,35.3
2017-02-15T16:56:08.602Z,35.5
2017-02-15T16:58:13.149Z,36.2
2017-02-15T17:00:06.172Z,36
2017-02-15T17:02:13.657Z,35.4
2017-02-15T17:04:05.773Z,35.4
2017-02-15T17:06:05.493Z,35.1
2017-02-15T17:08:05.757Z,35.9
2017-02-15T17:10:06.013Z,35.7
2017-02-15T17:12:05.803Z,35.6
2017-02-15T17:14:05.187Z,35.5
2017-02-15T17:16:06.308Z,35.2
2017-02-15T17:18:05.256Z,35.2
2017-02-15T17:20:05.146Z,37.9
2017-02-15T17:22:13.787Z,37.9
2017-02-15T17:24:15.453Z,37.9
2017-02-15T17:26:10.303Z,37.2
2017-02-15T17:28:05.402Z,37.4
2017-02-15T17:30:05.696Z,37
2017-02-15T17:32:05.636Z,36.9
2017-02-15T17:34:08.353Z,36.8
2017-02-15T17:36:05.122Z,37
2017-02-15T17:38:05.423Z,37.1
2017-02-15T17:40:08.349Z,37
2017-02-15T17:42:05.075Z,37
2017-02-15T17:44:05.807Z,35.9
2017-02-15T17:46:05.962Z,36.2
2017-02-15T17:48:05.432Z,36.3
2017-02-15T17:50:05.218Z,36.1
2017-02-15T17:52:06.321Z,36.2
2017-02-15T17:54:08.403Z,35.7
2017-02-15T17:56:05.256Z,35.7
2017-02-15T17:58:12.772Z,35.7
2017-02-15T18:00:05.699Z,35.7
2017-02-15T18:02:07.988Z,35.6
2017-02-15T18:04:08.159Z,35.7
2017-02-15T18:06:05.607Z,35.6
2017-02-15T18:08:05.389Z,35.6
2017-02-15T18:10:05.368Z,35.2
2017-02-15T18:12:10.184Z,35.1
2017-02-15T18:14:05.974Z,35.1
2017-02-15T18:16:06.013Z,35.1
2017-02-15T18:18:07.011Z,35.1
2017-02-15T18:20:05.614Z,35.1
2017-02-15T18:22:05.520Z,35.2
2017-02-15T18:24:05.324Z,35.2
2017-02-15T18:26:05.079Z,34.9
2017-02-15T18:28:06.108Z,34.7
2017-02-15T18:30:05.071Z,34.7
2017-02-15T18:32:05.844Z,34.7
2017-02-15T18:34:08.456Z,35
2017-02-15T18:36:08.005Z,34.7
2017-02-15T18:38:08.333Z,34.6
2017-02-15T18:40:06.057Z,34.6
2017-02-15T18:42:05.895Z,34.7
2017-02-15T18:44:06.655Z,34.7
2017-02-15T18:46:05.757Z,34.6
2017-02-15T18:48:05.513Z,34.4
2017-02-15T18:50:05.462Z,34.5
2017-02-15T18:52:08.108Z,34.4
2017-02-15T18:54:05.886Z,34.4
2017-02-15T18:56:12.953Z,34.6
2017-02-15T18:58:15.733Z,34.2
2017-02-15T19:00:05.459Z,34.2
2017-02-15T19:02:05.425Z,34.6
2017-02-15T19:04:05.775Z,34.6
2017-02-15T19:06:05.507Z,34.7
2017-02-15T19:08:09.010Z,34.7
2017-02-15T19:10:06.018Z,34.7
2017-02-15T19:12:05.741Z,34.7
2017-02-15T19:14:05.517Z,34.9
2017-02-15T19:16:05.814Z,34.6
2017-02-15T19:18:05.293Z,35.3
2017-02-15T19:20:05.084Z,34.8
2017-02-15T19:22:06.181Z,34.8
2017-02-15T19:24:06.043Z,34.7
2017-02-15T19:26:05.780Z,34.7
2017-02-15T19:28:05.665Z,34.8
2017-02-15T19:30:09.031Z,34.8
2017-02-15T19:32:05.834Z,34.9
2017-02-15T19:34:05.993Z,34.9
2017-02-15T19:36:10.988Z,35
2017-02-15T19:38:06.467Z,35.1
2017-02-15T19:40:05.632Z,35
2017-02-15T19:42:05.881Z,35.1
2017-02-15T19:44:05.154Z,35
2017-02-15T19:46:06.203Z,35.4
2017-02-15T19:48:08.028Z,35.1
2017-02-15T19:50:05.785Z,34.8
2017-02-15T19:52:08.248Z,35.2
2017-02-15T19:54:07.081Z,34.9
2017-02-15T19:56:06.201Z,35.2
2017-02-15T19:58:06.066Z,35
2017-02-15T20:00:05.837Z,35.3
2017-02-15T20:02:10.765Z,35.6
2017-02-15T20:04:06.079Z,35.6
2017-02-15T20:06:05.044Z,35.5
2017-02-15T20:08:05.296Z,35.6
2017-02-15T20:10:05.496Z,35.4
2017-02-15T20:12:05.678Z,35.4
2017-02-15T20:14:06.070Z,35.2
2017-02-15T20:16:05.583Z,35.7
2017-02-15T20:18:08.170Z,35.6
2017-02-15T20:20:05.924Z,35.5
2017-02-15T20:22:08.721Z,35.6
2017-02-15T20:24:05.519Z,35.6
2017-02-15T20:26:05.502Z,35.7
2017-02-15T20:28:06.162Z,35.8
2017-02-15T20:30:05.912Z,35.8
2017-02-15T20:32:05.916Z,36
2017-02-15T20:34:10.915Z,35.8
2017-02-15T20:36:05.634Z,35.9
2017-02-15T20:38:06.381Z,35.9
2017-02-15T20:40:06.434Z,35.9
2017-02-15T20:42:05.213Z,35.8
2017-02-15T20:44:06.288Z,35.8
2017-02-15T20:46:05.600Z,36.1
2017-02-15T20:48:05.327Z,35.9
2017-02-15T20:50:05.059Z,36
2017-02-15T20:52:08.604Z,35.9
2017-02-15T20:54:05.400Z,35.9
2017-02-15T20:56:05.155Z,36
2017-02-15T20:58:06.086Z,35.9
2017-02-15T21:00:08.520Z,35.8
2017-02-15T21:02:05.294Z,35.9
2017-02-15T21:04:05.604Z,35.8
2017-02-15T21:06:05.859Z,35.9
2017-02-15T21:08:05.659Z,35.9
2017-02-15T21:10:05.761Z,35.9
2017-02-15T21:12:05.489Z,35.8
2017-02-15T21:14:05.244Z,36
2017-02-15T21:16:06.605Z,35.8
2017-02-15T21:18:05.883Z,35.9
2017-02-15T21:20:05.138Z,35.9
2017-02-15T21:22:06.219Z,35.9
2017-02-15T21:24:05.910Z,36.1
2017-02-15T21:26:05.669Z,36.1
2017-02-15T21:28:05.791Z,36.3
2017-02-15T21:30:06.044Z,36.2
2017-02-15T21:32:06.020Z,36.2
2017-02-15T21:34:08.815Z,36.3
2017-02-15T21:36:08.125Z,36.3
2017-02-15T21:38:05.348Z,36.3
2017-02-15T21:40:05.631Z,36.3
2017-02-15T21:42:05.339Z,36.3
2017-02-15T21:44:05.053Z,36.1
2017-02-15T21:46:06.168Z,36.1
2017-02-15T21:48:11.228Z,36.1
2017-02-15T21:50:05.955Z,36.1
2017-02-15T21:52:06.024Z,36.1
2017-02-15T21:54:05.781Z,36.1
2017-02-15T21:56:08.069Z,35.9
2017-02-15T21:58:06.219Z,35.9
2017-02-15T22:00:05.221Z,35.9
2017-02-15T22:02:05.610Z,35.9
2017-02-15T22:04:08.282Z,35.9
2017-02-15T22:06:05.069Z,35.9
2017-02-15T22:08:13.440Z,35.9
2017-02-15T22:10:05.359Z,35.9
2017-02-15T22:12:05.079Z,35.9
2017-02-15T22:14:05.801Z,35.9
2017-02-15T22:16:07.890Z,36.1
2017-02-15T22:18:05.820Z,36.3
2017-02-15T22:20:08.862Z,35.9
2017-02-15T22:22:05.468Z,36.1
2017-02-15T22:24:05.233Z,35.9
2017-02-15T22:26:06.126Z,36.2
2017-02-15T22:28:06.427Z,36
2017-02-15T22:30:08.282Z,36
2017-02-15T22:32:07.605Z,36.1
2017-02-15T22:34:05.718Z,36.1
2017-02-15T22:36:05.856Z,36.2
2017-02-15T22:38:05.643Z,36.1
2017-02-15T22:40:05.780Z,36
2017-02-15T22:42:05.517Z,36
2017-02-15T22:44:05.466Z,36
2017-02-15T22:46:08.073Z,36.3
2017-02-15T22:48:05.331Z,36.3
2017-02-15T22:50:07.715Z,36.1
2017-02-15T22:52:06.339Z,36.1
2017-02-15T22:54:05.076Z,36
2017-02-15T22:56:05.892Z,36.1
2017-02-15T22:58:05.787Z,36
2017-02-15T23:00:05.531Z,36
2017-02-15T23:02:05.846Z,36
2017-02-15T23:04:05.309Z,36.1
2017-02-15T23:06:07.541Z,36.2
2017-02-15T23:08:05.345Z,36.2
2017-02-15T23:10:07.797Z,36.2
2017-02-15T23:12:08.015Z,36.2
2017-02-15T23:14:05.756Z,36.2
2017-02-15T23:16:05.808Z,36.3
2017-02-15T23:18:05.742Z,36.2
2017-02-15T23:20:05.564Z,36.2
2017-02-15T23:22:11.141Z,36.1
2017-02-15T23:24:06.038Z,35.9
2017-02-15T23:26:05.768Z,36.3
2017-02-15T23:28:05.681Z,36
2017-02-15T23:30:05.461Z,35.9
2017-02-15T23:32:05.247Z,35.9
2017-02-15T23:34:06.371Z,36
2017-02-15T23:36:05.638Z,36
2017-02-15T23:38:07.968Z,36.1
2017-02-15T23:40:06.079Z,36.1
2017-02-15T23:42:05.849Z,36.1
2017-02-15T23:44:08.101Z,36
2017-02-15T23:46:05.643Z,36
2017-02-15T23:48:05.447Z,36.1
2017-02-15T23:50:05.175Z,36
2017-02-15T23:52:08.778Z,36
2017-02-15T23:54:10.558Z,35.7
2017-02-15T23:56:05.680Z,36
2017-02-15T23:58:05.305Z,35.7
